Time;durP1;ratioP1;P1;durP2;ratioP2;P2;SDS_P1;SDS_P2;PMS_P1;PMS_P2;Temp;Humidity;BMP_temperature;BMP_pressure;BME280_temperature;BME280_humidity;BME280_pressure;Samples;Min_cycle;Max_cycle;Signal;HPM_P1;HPM_P2
2023/10/03 00:00:09;;;;;;;14.48;5.18;;;18.80;99.90;;;19.14;100.00;100704.91;5246671;28;20423;-51
2023/10/03 00:02:45;;;;;;;15.25;5.40;;;18.80;99.90;;;19.13;100.00;100703.16;5249267;28;20482;-51
2023/10/03 00:05:22;;;;;;;15.90;5.40;;;18.70;99.90;;;19.11;100.00;100698.78;5247337;28;20549;-50
2023/10/03 00:07:59;;;;;;;14.20;5.13;;;18.70;99.90;;;19.09;100.00;100690.84;5251321;28;20101;-50
2023/10/03 00:10:33;;;;;;;13.65;5.13;;;18.70;99.90;;;19.05;100.00;100689.09;5258967;28;20135;-50
2023/10/03 00:13:07;;;;;;;16.08;5.18;;;18.60;99.90;;;19.01;100.00;100687.31;5242324;28;20499;-51
2023/10/03 00:15:43;;;;;;;12.98;4.75;;;18.60;99.90;;;18.98;100.00;100687.34;5250674;28;20063;-49
2023/10/03 00:18:17;;;;;;;13.13;4.78;;;18.60;99.90;;;18.93;100.00;100683.81;5259399;28;20153;-51
2023/10/03 00:20:50;;;;;;;11.10;4.22;;;18.50;99.90;;;18.89;100.00;100674.13;5251602;28;20463;-50
2023/10/03 00:23:22;;;;;;;14.55;5.03;;;18.50;99.90;;;18.84;100.00;100670.63;5251682;28;20396;-51
2023/10/03 00:25:55;;;;;;;12.95;4.50;;;18.40;99.90;;;18.79;100.00;100675.91;5250666;28;20474;-52
2023/10/03 00:28:29;;;;;;;13.52;4.55;;;18.40;99.90;;;18.75;100.00;100662.72;5251210;28;20040;-50
2023/10/03 00:31:03;;;;;;;;;;;18.40;99.90;;;18.68;100.00;100657.44;5249045;28;20048;-50
2023/10/03 00:33:37;;;;;;;12.15;3.83;;;18.30;99.90;;;18.66;100.00;100653.94;5250790;28;19924;-52
2023/10/03 00:36:17;;;;;;;14.70;5.03;;;18.30;99.90;;;18.62;100.00;100640.69;5253976;28;20422;-50
2023/10/03 00:38:50;;;;;;;14.07;4.80;;;18.20;99.90;;;18.60;100.00;100647.72;5254238;28;20097;-52
2023/10/03 00:41:23;;;;;;;13.73;5.10;;;18.20;99.90;;;18.56;100.00;100645.97;5250410;28;20053;-50
2023/10/03 00:43:59;;;;;;;12.73;4.75;;;18.20;99.90;;;18.51;100.00;100645.94;5252274;28;20131;-49
2023/10/03 00:46:33;;;;;;;12.13;3.97;;;18.10;99.90;;;18.45;100.00;100643.31;5246987;28;20093;-51
2023/10/03 00:49:10;;;;;;;11.68;4.32;;;18.10;99.90;;;18.40;100.00;100640.69;5250815;28;20044;-51
2023/10/03 00:51:45;;;;;;;12.70;4.30;;;18.00;99.90;;;18.38;100.00;100652.09;5256561;28;20075;-51
2023/10/03 00:54:18;;;;;;;12.20;4.32;;;18.00;99.90;;;18.33;100.00;100628.38;5250671;28;20048;-50
2023/10/03 00:56:50;;;;;;;15.63;4.93;;;18.00;99.90;;;18.31;100.00;100627.47;5247420;28;20056;-53
2023/10/03 00:59:23;;;;;;;12.30;4.45;;;17.90;99.90;;;18.33;100.00;100617.81;5254380;28;20056;-51
2023/10/03 01:02:05;;;;;;;16.45;5.20;;;18.00;99.90;;;18.40;100.00;100616.06;5243592;28;20059;-51
2023/10/03 01:04:40;;;;;;;14.30;5.45;;;18.00;99.90;;;18.46;100.00;100608.16;5251739;28;20051;-51
2023/10/03 01:07:12;;;;;;;;;;;18.00;99.90;;;18.53;100.00;100609.91;5256429;28;20396;-50
2023/10/03 01:09:46;;;;;;;15.65;5.57;;;18.20;99.90;;;18.62;100.00;100609.88;5251996;28;19931;-50
2023/10/03 01:12:21;;;;;;;18.10;5.88;;;18.20;99.90;;;18.69;100.00;100595.81;5263094;28;20048;-50
2023/10/03 01:14:54;;;;;;;15.60;5.57;;;18.30;99.90;;;18.77;100.00;100603.72;5246020;28;20037;-51
2023/10/03 01:17:30;;;;;;;18.60;5.93;;;18.40;99.90;;;18.84;100.00;100589.63;5254858;28;20048;-52
2023/10/03 01:20:16;;;;;;;19.92;6.90;;;18.50;99.90;;;18.93;100.00;100594.91;5251716;28;20052;-50
2023/10/03 01:22:49;;;;;;;19.33;6.25;;;18.60;99.90;;;19.02;100.00;100591.34;5261558;28;20301;-51
2023/10/03 01:25:25;;;;;;;18.80;6.25;;;18.70;99.90;;;19.10;100.00;100580.75;5254225;28;20048;-51
2023/10/03 01:28:01;;;;;;;17.60;6.13;;;18.70;99.90;;;19.18;100.00;100586.91;5250545;28;20040;-51
2023/10/03 01:30:33;;;;;;;19.00;6.70;;;18.80;99.90;;;19.27;100.00;100578.06;5252981;28;20048;-50
2023/10/03 01:33:06;;;;;;;20.58;6.47;;;18.90;99.90;;;19.31;100.00;100574.53;5257037;28;20044;-51
2023/10/03 01:35:39;;;;;;;18.67;6.30;;;19.00;99.90;;;19.37;100.00;100571.88;5250417;28;20040;-51
2023/10/03 01:38:14;;;;;;;20.92;6.90;;;19.00;99.90;;;19.43;100.00;100570.06;5251908;28;20344;-52
2023/10/03 01:40:52;;;;;;;19.85;7.20;;;19.10;99.90;;;19.50;100.00;100576.19;5247135;28;20502;-51
2023/10/03 01:43:25;;;;;;;18.35;6.63;;;19.10;99.90;;;19.53;100.00;100570.88;5274188;28;20048;-49
2023/10/03 01:46:00;;;;;;;21.98;6.28;;;19.20;99.90;;;19.58;100.00;100563.84;5251411;28;20533;-50
2023/10/03 01:48:34;;;;;;;18.10;6.07;;;19.30;99.90;;;19.62;100.00;100573.50;5249507;28;20097;-51
2023/10/03 01:51:08;;;;;;;17.33;6.00;;;19.30;99.90;;;19.65;100.00;100559.41;5272719;28;20067;-50
2023/10/03 01:53:41;;;;;;;18.52;6.32;;;19.30;99.90;;;19.67;100.00;100555.84;5251143;28;20523;-51
2023/10/03 01:56:18;;;;;;;16.35;6.60;;;19.30;99.90;;;19.72;100.00;100561.13;5259280;28;20094;-50
2023/10/03 01:58:50;;;;;;;19.08;6.38;;;19.40;99.90;;;19.74;100.00;100554.03;5263131;28;20071;-51
2023/10/03 02:01:24;;;;;;;18.80;6.35;;;19.40;99.90;;;19.77;100.00;100548.75;5260178;28;20044;-52
2023/10/03 02:03:56;;;;;;;19.58;6.65;;;19.40;99.90;;;19.80;100.00;100543.44;5248707;28;20392;-50
2023/10/03 02:06:28;;;;;;;17.65;6.13;;;19.40;99.90;;;19.84;100.00;100549.59;5250955;28;20055;-51
2023/10/03 02:09:03;;;;;;;18.27;6.10;;;19.50;99.90;;;19.86;100.00;100537.22;5253479;28;20423;-50
2023/10/03 02:11:37;;;;;;;;;;;19.50;99.90;;;19.87;100.00;100539.84;5259202;28;20459;-51
2023/10/03 02:14:09;;;;;;;18.80;6.72;;;19.50;99.90;;;19.90;100.00;100529.25;5263247;28;19966;-50
2023/10/03 02:16:46;;;;;;;19.85;6.35;;;19.50;99.90;;;19.93;100.00;100513.34;5262818;28;20046;-50
2023/10/03 02:19:18;;;;;;;18.92;6.45;;;19.60;99.90;;;19.96;100.00;100518.63;5254376;28;20101;-50
2023/10/03 02:21:59;;;;;;;17.73;6.65;;;19.60;99.90;;;19.99;100.00;100513.31;5250207;28;20086;-51
2023/10/03 02:24:32;;;;;;;17.40;5.97;;;19.60;99.90;;;20.03;100.00;100509.75;5252597;28;20044;-50
2023/10/03 02:27:06;;;;;;;18.55;6.50;;;19.70;99.90;;;20.06;100.00;100491.19;5253816;28;20051;-51
2023/10/03 02:29:39;;;;;;;18.98;6.70;;;19.70;99.90;;;20.09;100.00;100477.06;5256974;28;20046;-51
2023/10/03 02:32:14;;;;;;;18.38;6.40;;;19.70;99.90;;;20.12;100.00;100482.31;5250737;28;20454;-51
2023/10/03 02:34:47;;;;;;;18.13;6.00;;;19.80;99.90;;;20.13;100.00;100470.84;5255131;28;20039;-50
2023/10/03 02:37:20;;;;;;;19.45;6.38;;;19.70;99.90;;;20.15;100.00;100466.44;5249464;28;20167;-52
2023/10/03 02:39:53;;;;;;;16.20;5.90;;;19.80;99.90;;;20.20;100.00;100472.53;5253161;28;20037;-52
2023/10/03 02:42:28;;;;;;;21.23;6.70;;;19.80;99.90;;;20.21;100.00;100465.47;5250884;28;20071;-51
2023/10/03 02:45:00;;;;;;;15.63;5.82;;;19.80;99.90;;;20.23;100.00;100469.88;5254195;28;20579;-52
2023/10/03 02:47:34;;;;;;;16.20;6.45;;;19.90;99.90;;;20.24;100.00;100458.41;5247637;28;20499;-50
2023/10/03 02:50:08;;;;;;;16.45;5.90;;;19.90;99.90;;;20.27;100.00;100450.41;5249297;28;20526;-51
2023/10/03 02:52:45;;;;;;;18.40;6.05;;;19.90;99.90;;;20.26;100.00;100451.31;5250674;28;20575;-52
2023/10/03 02:55:18;;;;;;;17.05;5.97;;;19.90;99.90;;;20.28;100.00;100451.31;5257254;28;20055;-52
2023/10/03 02:57:52;;;;;;;18.23;5.88;;;19.90;99.90;;;20.29;100.00;100447.78;5256245;28;20139;-52
2023/10/03 03:00:24;;;;;;;15.63;5.70;;;19.90;99.90;;;20.29;100.00;100443.34;5250684;28;20062;-51
2023/10/03 03:02:57;;;;;;;18.58;6.05;;;19.90;99.90;;;20.29;100.00;100437.19;5250752;28;20124;-51
2023/10/03 03:05:35;;;;;;;16.70;6.20;;;19.90;99.90;;;20.28;100.00;100431.00;5254180;28;20048;-50
2023/10/03 03:11:05;;;;;;;20.40;6.03;;;19.90;99.90;;;20.25;100.00;100446.03;5267087;28;20041;-52
2023/10/03 03:13:39;;;;;;;16.60;5.93;;;19.90;99.90;;;20.26;100.00;100435.44;5255428;28;20086;-51
2023/10/03 03:16:15;;;;;;;15.68;5.53;;;19.90;99.90;;;20.23;100.00;100435.47;5243983;28;20040;-52
2023/10/03 03:18:50;;;;;;;16.92;5.75;;;19.90;99.90;;;20.23;100.00;100438.13;5249646;28;20067;-51
2023/10/03 03:21:22;;;;;;;15.95;6.53;;;19.90;99.90;;;20.22;100.00;100446.97;5257735;28;20415;-51
2023/10/03 03:23:57;;;;;;;14.95;5.55;;;19.90;99.90;;;20.25;100.00;100433.69;5251104;28;20050;-50
2023/10/03 03:26:36;;;;;;;17.20;5.72;;;19.90;99.90;;;20.24;100.00;100439.88;5253956;28;20515;-52
2023/10/03 03:29:20;;;;;;;17.00;6.13;;;19.90;99.90;;;20.23;100.00;100438.13;5249272;28;20572;-50
2023/10/03 03:31:53;;;;;;;15.75;5.95;;;19.90;99.90;;;20.22;100.00;100422.25;5260479;28;20046;-52
2023/10/03 03:34:28;;;;;;;16.73;5.82;;;19.90;99.90;;;20.21;100.00;100421.38;5247242;28;20640;-50
2023/10/03 03:37:20;;;;;;;16.17;5.15;;;19.90;99.90;;;20.22;100.00;100433.72;5248965;28;20040;-50
2023/10/03 03:39:54;;;;;;;20.35;6.10;;;19.90;99.90;;;20.21;100.00;100424.03;5253871;28;20135;-51
2023/10/03 03:42:30;;;;;;;16.35;6.05;;;19.80;99.90;;;20.21;100.00;100424.03;5258685;28;20105;-50
2023/10/03 03:45:06;;;;;;;14.35;5.25;;;19.80;99.90;;;20.20;100.00;100422.25;5249042;28;20052;-51
2023/10/03 03:47:39;;;;;;;16.90;5.75;;;19.90;99.90;;;20.21;100.00;100428.41;5249561;28;20045;-50
2023/10/03 03:50:11;;;;;;;17.15;5.60;;;19.80;99.90;;;20.20;100.00;100427.53;5257091;28;20558;-51
2023/10/03 03:52:44;;;;;;;16.73;5.43;;;19.90;99.90;;;20.21;100.00;100429.34;5245789;28;20045;-51
2023/10/03 03:55:17;;;;;;;14.88;5.40;;;19.90;99.90;;;20.23;100.00;100418.72;5263574;28;20048;-52
2023/10/03 03:57:51;;;;;;;15.10;5.63;;;19.80;99.90;;;20.22;100.00;100424.91;5254246;28;20089;-51
2023/10/03 04:00:28;;;;;;;15.38;5.63;;;19.90;99.90;;;20.22;100.00;100415.19;5254418;28;20040;-51
2023/10/03 04:03:05;;;;;;;15.23;5.55;;;19.90;99.90;;;20.22;100.00;100420.50;5255637;28;20051;-52
2023/10/03 04:05:37;;;;;;;13.93;4.93;;;19.80;99.90;;;20.22;100.00;100424.91;5248174;28;20087;-50
2023/10/03 04:08:10;;;;;;;13.30;5.13;;;19.90;99.90;;;20.24;100.00;100423.13;5251527;28;20136;-51
2023/10/03 04:10:44;;;;;;;15.27;4.88;;;19.90;99.90;;;20.23;100.00;100426.66;5247243;28;20570;-50
2023/10/03 04:13:17;;;;;;;15.02;4.78;;;19.80;99.90;;;20.22;100.00;100435.50;5246353;28;20044;-50
2023/10/03 04:15:51;;;;;;;15.48;5.03;;;19.90;99.90;;;20.22;100.00;100428.44;5249021;28;20055;-51
2023/10/03 04:18:27;;;;;;;13.43;4.90;;;19.80;99.90;;;20.20;100.00;100426.66;5250180;28;20032;-50
2023/10/03 04:20:59;;;;;;;13.80;5.03;;;19.90;99.90;;;20.19;100.00;100425.81;5251725;28;20053;-50
2023/10/03 04:23:32;;;;;;;13.85;4.50;;;19.80;99.90;;;20.20;100.00;100427.53;5261176;28;20093;-50
2023/10/03 04:26:06;;;;;;;15.07;4.90;;;19.80;99.90;;;20.19;100.00;100425.81;5252766;28;20060;-51
2023/10/03 04:28:42;;;;;;;13.82;4.82;;;19.80;99.90;;;20.19;100.00;100430.22;5252223;28;20036;-52
2023/10/03 04:31:16;;;;;;;12.95;4.55;;;19.80;99.90;;;20.20;100.00;100438.13;5263515;28;20044;-51
2023/10/03 04:33:48;;;;;;;12.75;4.78;;;19.80;99.90;;;20.20;100.00;100429.31;5250829;28;20044;-50
2023/10/03 04:36:24;;;;;;;11.57;3.97;;;19.80;99.90;;;20.21;100.00;100428.41;5251867;28;20519;-51
2023/10/03 04:38:56;;;;;;;10.27;4.20;;;19.80;99.90;;;20.21;100.00;100439.91;5265047;28;20036;-51
2023/10/03 04:41:29;;;;;;;10.70;3.97;;;19.80;99.90;;;20.24;100.00;100449.59;5244630;28;20052;-52
2023/10/03 04:44:02;;;;;;;9.70;3.88;;;19.80;99.90;;;20.25;100.00;100438.09;5247843;28;20086;-51
2023/10/03 04:46:35;;;;;;;11.48;3.80;;;19.80;99.90;;;20.23;100.00;100438.13;5253748;28;20076;-52
2023/10/03 04:49:08;;;;;;;8.30;3.28;;;19.80;99.90;;;20.24;100.00;100446.94;5247701;28;20572;-51
2023/10/03 04:51:43;;;;;;;8.63;3.15;;;19.80;99.90;;;20.24;100.00;100444.28;5249151;28;20071;-50
2023/10/03 04:54:17;;;;;;;10.05;3.50;;;19.80;99.90;;;20.24;100.00;100439.88;5258648;28;20052;-51
2023/10/03 04:56:49;;;;;;;9.23;3.22;;;19.80;99.90;;;20.26;100.00;100447.78;5247248;28;20462;-51
2023/10/03 04:59:22;;;;;;;8.90;3.22;;;19.80;99.90;;;20.25;100.00;100452.19;5247140;28;20098;-52
2023/10/03 05:01:55;;;;;;;9.07;3.90;;;19.80;99.90;;;20.26;100.00;100459.25;5249724;28;20051;-52
2023/10/03 05:04:28;;;;;;;9.40;3.75;;;19.80;99.90;;;20.26;100.00;100471.59;5259492;28;20101;-51
2023/10/03 05:07:00;;;;;;;9.38;3.67;;;19.80;99.90;;;20.25;100.00;100483.09;5244006;28;20048;-50
2023/10/03 05:09:33;;;;;;;9.73;3.67;;;19.80;99.90;;;20.25;100.00;100472.50;5250209;28;20036;-51
2023/10/03 05:12:05;;;;;;;8.23;3.28;;;19.80;99.90;;;20.25;100.00;100462.78;5266403;28;20080;-50
2023/10/03 05:14:41;;;;;;;8.38;2.97;;;19.80;99.90;;;20.25;100.00;100473.38;5264990;28;20040;-53
2023/10/03 05:17:16;;;;;;;9.95;3.80;;;19.80;99.90;;;20.24;100.00;100470.75;5262056;28;20040;-51
2023/10/03 05:19:49;;;;;;;7.93;3.05;;;19.80;99.90;;;20.24;100.00;100483.97;5255641;28;20037;-50
2023/10/03 05:22:23;;;;;;;8.13;3.00;;;19.80;99.90;;;20.22;100.00;100468.13;5249014;28;20437;-51
2023/10/03 05:24:56;;;;;;;8.80;3.42;;;19.80;99.90;;;20.23;100.00;100479.59;5246189;28;20140;-52
2023/10/03 05:27:29;;;;;;;9.65;3.28;;;19.80;99.90;;;20.23;100.00;100480.47;5250074;28;20067;-51
2023/10/03 05:30:05;;;;;;;7.57;3.05;;;19.80;99.90;;;20.23;100.00;100491.06;5248425;28;20469;-51
2023/10/03 05:32:43;;;;;;;8.07;3.15;;;19.80;99.90;;;20.23;100.00;100493.69;5248607;28;20055;-51
2023/10/03 05:35:16;;;;;;;9.18;3.60;;;19.80;99.90;;;20.25;100.00;100501.63;5249688;28;20040;-51
2023/10/03 05:37:50;;;;;;;12.70;3.47;;;19.80;99.90;;;20.24;100.00;100484.84;5248733;28;20094;-51
2023/10/03 05:40:23;;;;;;;8.70;3.03;;;19.80;99.90;;;20.26;100.00;100491.00;5257700;28;20040;-50
2023/10/03 05:42:57;;;;;;;8.80;3.47;;;19.80;99.90;;;20.28;100.00;100498.97;5258739;28;20051;-49
2023/10/03 05:45:29;;;;;;;9.32;3.70;;;19.90;99.90;;;20.30;100.00;100507.75;5257440;28;20410;-50
2023/10/03 05:48:04;;;;;;;9.27;3.38;;;19.90;99.90;;;20.34;100.00;100509.44;5253770;28;20713;-50
2023/10/03 05:50:37;;;;;;;9.98;3.88;;;19.90;99.90;;;20.41;100.00;100511.19;5247583;28;20503;-51
2023/10/03 05:53:09;;;;;;;11.32;4.03;;;20.00;99.90;;;20.48;100.00;100522.63;5251502;28;20051;-51
2023/10/03 05:55:43;;;;;;;11.88;4.38;;;20.00;99.90;;;20.52;100.00;100509.31;5249510;28;20042;-50
2023/10/03 05:58:15;;;;;;;10.60;4.13;;;20.10;99.90;;;20.58;100.00;100503.06;5265448;28;20055;-50
2023/10/03 06:00:49;;;;;;;10.80;3.65;;;20.10;99.90;;;20.61;100.00;100526.88;5261284;28;20036;-51
2023/10/03 06:03:23;;;;;;;8.95;3.75;;;20.20;99.90;;;20.65;100.00;100510.06;5250888;28;20109;-50
2023/10/03 06:05:55;;;;;;;10.13;3.92;;;20.20;99.90;;;20.67;100.00;100518.88;5254121;28;20052;-51
2023/10/03 06:08:27;;;;;;;10.02;4.53;;;20.20;99.90;;;20.70;100.00;100524.13;5264118;28;20048;-52
2023/10/03 06:11:03;;;;;;;12.18;4.30;;;20.30;99.90;;;20.73;100.00;100526.72;5256167;28;20044;-50
2023/10/03 06:13:35;;;;;;;12.82;4.57;;;20.30;99.90;;;20.76;100.00;100512.59;5254558;28;20228;-52
2023/10/03 06:16:07;;;;;;;12.27;4.55;;;20.30;99.90;;;20.79;100.00;100533.75;5253143;28;20044;-51
2023/10/03 06:18:41;;;;;;;11.77;4.32;;;20.40;99.90;;;20.80;100.00;100554.94;5271370;28;20502;-50
2023/10/03 06:21:17;;;;;;;10.95;4.05;;;20.40;99.90;;;20.81;100.00;100567.28;5259950;28;20055;-50
2023/10/03 06:23:49;;;;;;;11.48;4.32;;;20.40;99.90;;;20.81;100.00;100551.38;5249517;28;20044;-51
2023/10/03 06:26:22;;;;;;;12.02;4.53;;;20.40;99.90;;;20.84;100.00;100569.00;5259408;28;20045;-50
2023/10/03 06:28:55;;;;;;;10.55;3.95;;;20.40;99.90;;;20.85;100.00;100570.75;5249584;28;20127;-51
2023/10/03 06:31:27;;;;;;;10.90;4.20;;;20.40;99.90;;;20.89;100.00;100568.97;5251905;28;20504;-51
2023/10/03 06:34:02;;;;;;;10.60;4.05;;;20.40;99.90;;;20.91;100.00;100564.50;5257398;28;20507;-51
2023/10/03 06:36:35;;;;;;;11.38;4.00;;;20.50;99.90;;;20.93;100.00;100560.06;5261484;28;20087;-49
2023/10/03 06:39:08;;;;;;;12.02;4.28;;;20.50;99.90;;;20.91;100.00;100580.41;5259630;28;20093;-50
2023/10/03 06:41:40;;;;;;;10.65;4.38;;;20.50;99.90;;;20.93;100.00;100573.31;5253201;28;20411;-51
2023/10/03 06:44:13;;;;;;;11.02;3.78;;;20.50;99.90;;;20.94;100.00;100554.78;5246738;28;20049;-50
2023/10/03 06:46:45;;;;;;;9.48;4.05;;;20.50;99.90;;;20.95;100.00;100539.75;5251210;28;20680;-49
2023/10/03 06:49:22;;;;;;;8.85;3.85;;;20.50;99.90;;;20.95;100.00;100558.31;5255047;28;20380;-50
2023/10/03 06:51:57;;;;;;;8.52;3.58;;;20.50;99.90;;;20.99;100.00;100565.28;5256281;28;20126;-50
2023/10/03 06:54:29;;;;;;;11.40;3.60;;;20.50;99.90;;;20.98;100.00;100547.66;5258792;28;20048;-52
2023/10/03 06:57:03;;;;;;;10.77;4.05;;;20.50;99.90;;;21.00;100.00;100564.44;5246942;28;20045;-53
2023/10/03 06:59:36;;;;;;;10.05;3.67;;;20.60;99.90;;;21.02;100.00;100589.13;5253271;28;20135;-49
2023/10/03 07:02:08;;;;;;;10.38;3.45;;;20.60;99.90;;;21.04;100.00;100613.81;5249497;28;20032;-49
2023/10/03 07:04:42;;;;;;;11.15;3.90;;;20.60;99.90;;;21.05;100.00;100619.09;5267232;28;20044;-50
2023/10/03 07:07:14;;;;;;;11.85;4.00;;;20.60;99.90;;;21.05;100.00;100626.19;5250390;28;20572;-49
2023/10/03 07:09:47;;;;;;;11.02;3.70;;;20.60;99.90;;;21.04;100.00;100614.69;5256146;28;20048;-50
2023/10/03 07:12:19;;;;;;;8.65;3.60;;;20.60;99.90;;;21.04;100.00;100611.19;5254138;28;20086;-49
2023/10/03 07:14:51;;;;;;;8.90;3.47;;;20.60;99.90;;;21.04;100.00;100627.09;5245507;28;20423;-50
2023/10/03 07:17:24;;;;;;;11.73;4.10;;;20.60;99.90;;;21.04;100.00;100608.53;5256008;28;20071;-48
2023/10/03 07:19:58;;;;;;;8.73;3.58;;;20.60;99.90;;;21.05;100.00;100626.19;5250330;28;20059;-50
2023/10/03 07:22:30;;;;;;;10.00;3.90;;;20.60;99.90;;;21.06;100.00;100633.22;5250108;28;20055;-48
2023/10/03 07:25:06;;;;;;;9.95;3.72;;;20.60;99.90;;;21.06;100.00;100649.13;5245009;28;20048;-47
2023/10/03 07:27:41;;;;;;;10.30;3.95;;;20.70;99.90;;;21.07;100.00;100648.25;5244662;28;20059;-48
2023/10/03 07:30:15;;;;;;;9.25;3.80;;;20.70;99.90;;;21.08;100.00;100618.22;5250198;28;20574;-50
2023/10/03 07:32:48;;;;;;;9.20;3.47;;;20.70;99.90;;;21.11;100.00;100621.69;5255622;28;20043;-50
2023/10/03 07:35:22;;;;;;;12.07;4.32;;;20.70;99.90;;;21.13;100.00;100614.63;5245955;28;20049;-50
2023/10/03 07:37:57;;;;;;;11.38;4.20;;;20.70;99.90;;;21.18;100.00;100643.69;5264438;28;20380;-50
2023/10/03 07:40:29;;;;;;;9.80;3.65;;;20.70;99.90;;;21.21;100.00;100651.63;5245310;28;21045;-50
2023/10/03 07:43:02;;;;;;;8.55;3.50;;;20.80;99.90;;;21.24;100.00;100637.47;5249130;28;20041;-50
2023/10/03 07:45:36;;;;;;;8.55;3.55;;;20.80;99.90;;;21.24;100.00;100630.38;5249271;28;20509;-49
2023/10/03 07:48:10;;;;;;;7.32;3.13;;;20.80;99.90;;;21.26;100.00;100641.00;5252690;28;20036;-49
2023/10/03 07:50:45;;;;;;;8.77;3.45;;;20.80;99.90;;;21.29;100.00;100655.09;5248291;28;20048;-50
2023/10/03 07:53:18;;;;;;;7.95;3.40;;;20.90;99.90;;;21.32;100.00;100660.38;5253423;28;20085;-50
2023/10/03 07:55:50;;;;;;;9.68;4.15;;;20.90;99.90;;;21.34;100.00;100676.28;5249984;28;20712;-50
2023/10/03 07:58:22;;;;;;;10.90;4.05;;;20.90;99.90;;;21.35;100.00;100668.28;5257585;28;20060;-50
2023/10/03 08:00:55;;;;;;;9.27;3.30;;;20.90;99.90;;;21.36;100.00;100667.41;5256607;28;20036;-51
2023/10/03 08:03:28;;;;;;;9.27;3.95;;;20.90;99.90;;;21.39;100.00;100677.97;5260850;28;20048;-49
2023/10/03 08:06:03;;;;;;;9.02;3.65;;;21.00;99.90;;;21.43;100.00;100675.28;5259258;28;20048;-50
2023/10/03 08:08:35;;;;;;;8.43;3.40;;;21.00;99.90;;;21.45;100.00;100679.66;5248620;28;20050;-50
2023/10/03 08:11:08;;;;;;;10.27;3.80;;;21.00;99.90;;;21.51;100.00;100684.00;5248342;28;20395;-49
2023/10/03 08:13:41;;;;;;;11.43;4.22;;;21.10;99.90;;;21.56;100.00;100683.06;5251066;28;20106;-49
2023/10/03 08:16:14;;;;;;;9.93;4.57;;;21.10;99.90;;;21.57;100.00;100678.63;5252028;28;20044;-50
2023/10/03 08:18:47;;;;;;;9.57;3.67;;;21.10;99.90;;;21.58;100.00;100706.91;5258906;28;20086;-50
2023/10/03 08:21:21;;;;;;;9.30;3.53;;;21.20;99.90;;;21.62;100.00;100709.53;5267661;28;20090;-49
2023/10/03 08:23:54;;;;;;;11.60;3.67;;;21.20;99.90;;;21.70;100.00;100716.50;5266350;28;20048;-50
2023/10/03 08:26:27;;;;;;;9.88;3.58;;;21.20;99.90;;;21.74;100.00;100734.16;5265557;28;20059;-50
2023/10/03 08:29:03;;;;;;;7.90;3.03;;;21.30;99.90;;;21.73;100.00;100735.94;5242601;28;20125;-50
2023/10/03 08:31:38;;;;;;;8.10;3.25;;;21.30;99.90;;;21.76;100.00;100716.44;5253247;28;20040;-50
2023/10/03 08:34:12;;;;;;;6.00;3.00;;;21.30;99.90;;;21.83;100.00;100692.44;5248507;28;20040;-49
2023/10/03 08:36:46;;;;;;;6.07;2.88;;;21.40;99.90;;;21.93;100.00;100691.44;5261590;28;20424;-51
2023/10/03 08:39:18;;;;;;;5.90;2.80;;;21.40;99.90;;;22.05;100.00;100702.81;5259168;28;20059;-49
2023/10/03 08:42:11;;;;;;;5.53;2.50;;;21.50;99.90;;;22.13;100.00;100711.56;5247812;28;20118;-48
2023/10/03 08:44:52;;;;;;;6.30;2.47;;;21.60;99.90;;;22.20;100.00;100713.22;5263855;28;20055;-49
2023/10/03 08:47:29;;;;;;;5.60;2.53;;;21.60;99.90;;;22.20;100.00;100716.75;5263587;28;20048;-49
2023/10/03 08:50:10;;;;;;;4.45;2.20;;;21.70;99.90;;;22.18;100.00;100715.03;5243580;28;20036;-49
2023/10/03 08:52:47;;;;;;;5.85;2.28;;;21.60;99.90;;;22.13;100.00;100715.09;5260400;28;20049;-50
2023/10/03 08:55:20;;;;;;;5.60;2.65;;;21.60;99.90;;;22.06;100.00;100704.56;5243629;28;20050;-49
2023/10/03 08:57:52;;;;;;;5.45;2.55;;;21.60;99.90;;;22.01;100.00;100687.81;5243737;28;20439;-50
2023/10/03 09:00:25;;;;;;;3.83;1.98;;;21.50;99.90;;;22.01;100.00;100695.78;5261189;28;20071;-50
2023/10/03 09:03:09;;;;;;;4.50;2.22;;;21.50;99.90;;;22.00;100.00;100707.28;5264419;28;20058;-49
2023/10/03 09:05:42;;;;;;;3.97;1.98;;;21.50;99.90;;;21.94;100.00;100701.16;5264198;28;20524;-49
2023/10/03 09:08:17;;;;;;;4.32;2.08;;;21.50;99.90;;;21.87;100.00;100698.59;5259398;28;20056;-49
2023/10/03 09:10:53;;;;;;;3.15;1.80;;;21.40;99.90;;;21.81;100.00;100685.41;5251193;28;20093;-49
2023/10/03 09:13:28;;;;;;;4.85;2.13;;;21.30;99.90;;;21.75;100.00;100680.19;5253582;28;20110;-48
2023/10/03 09:16:06;;;;;;;5.30;2.25;;;21.30;99.90;;;21.70;100.00;100706.78;5247472;28;20483;-49
2023/10/03 09:18:41;;;;;;;3.78;1.83;;;21.30;99.90;;;21.66;100.00;100729.81;5243523;28;20114;-49
2023/10/03 09:21:23;;;;;;;5.00;2.22;;;21.20;99.90;;;21.62;100.00;100720.13;5259770;28;20130;-50
2023/10/03 09:24:12;;;;;;;4.78;2.33;;;21.20;99.90;;;21.60;100.00;100734.31;5249885;28;20044;-50
2023/10/03 09:26:51;;;;;;;4.55;2.00;;;21.10;99.90;;;21.59;100.00;100751.13;5258921;28;20500;-50
2023/10/03 09:29:31;;;;;;;5.57;2.30;;;21.10;99.90;;;21.56;100.00;100740.53;5254996;28;20419;-50
2023/10/03 09:32:12;;;;;;;4.03;2.05;;;21.10;99.90;;;21.55;100.00;100747.63;5246329;28;20468;-50
2023/10/03 09:34:46;;;;;;;3.90;1.92;;;21.10;99.90;;;21.53;100.00;100757.38;5247482;28;20048;-50
2023/10/03 09:37:19;;;;;;;4.15;2.03;;;21.10;99.90;;;21.52;100.00;100752.09;5251092;28;20056;-49
2023/10/03 09:39:58;;;;;;;2.60;1.52;;;21.10;99.90;;;21.51;100.00;100752.97;5264709;28;20547;-50
2023/10/03 09:42:32;;;;;;;3.88;1.95;;;21.10;99.90;;;21.48;100.00;100755.66;5244100;28;20048;-49
2023/10/03 09:45:13;;;;;;;3.63;1.83;;;21.00;99.90;;;21.46;100.00;100768.06;5252410;28;20411;-48
2023/10/03 09:47:47;;;;;;;4.38;2.20;;;21.00;99.90;;;21.39;100.00;100765.47;5263333;28;20098;-49
2023/10/03 09:50:19;;;;;;;3.30;1.60;;;21.00;99.90;;;21.33;100.00;100768.19;5249801;28;20434;-50
2023/10/03 09:52:52;;;;;;;3.83;2.28;;;20.90;99.90;;;21.28;100.00;100759.41;5269368;28;20158;-50
2023/10/03 09:55:26;;;;;;;3.53;1.67;;;20.90;99.90;;;21.26;100.00;100763.81;5264623;28;20575;-50
2023/10/03 09:57:59;;;;;;;3.20;1.90;;;20.90;99.90;;;21.25;100.00;100772.63;5260880;28;20044;-49
2023/10/03 10:00:50;;;;;;;2.88;1.75;;;20.80;99.90;;;21.25;100.00;100775.28;5263049;28;20047;-50
2023/10/03 10:03:30;;;;;;;2.60;1.63;;;20.80;99.90;;;21.25;100.00;100769.97;5250047;28;20415;-49
2023/10/03 10:06:19;;;;;;;2.58;1.63;;;20.80;99.90;;;21.23;100.00;100769.13;5252718;28;20045;-50
2023/10/03 10:08:58;;;;;;;2.63;1.45;;;20.80;99.90;;;21.24;100.00;100768.22;5262272;28;20121;-50
2023/10/03 10:11:32;;;;;;;2.40;1.60;;;20.80;99.90;;;21.22;100.00;100762.06;5256890;28;20048;-51
2023/10/03 10:14:09;;;;;;;3.40;1.52;;;20.70;99.90;;;21.22;100.00;100761.19;5249368;28;20033;-50
2023/10/03 10:17:19;;;;;;;2.80;1.50;;;20.70;99.90;;;21.23;100.00;100761.16;5253715;28;20121;-50
2023/10/03 10:20:17;;;;;;;3.13;1.88;;;20.80;99.90;;;21.28;100.00;100762.03;5252670;28;20044;-50
2023/10/03 10:23:16;;;;;;;3.28;1.95;;;20.80;99.90;;;21.35;100.00;100746.97;5252504;28;20055;-50
2023/10/03 10:25:56;;;;;;;4.82;1.77;;;20.90;99.90;;;21.37;100.00;100761.94;5261797;28;20051;-49
2023/10/03 10:28:34;;;;;;;2.83;1.67;;;20.90;99.90;;;21.39;100.00;100773.44;5255619;28;20509;-50
2023/10/03 10:31:22;;;;;;;3.95;2.20;;;20.90;99.90;;;21.43;100.00;100778.69;5258857;28;20500;-49
2023/10/03 10:34:35;;;;;;;3.50;2.20;;;21.00;99.90;;;21.40;100.00;100772.53;5255325;28;20040;-50
2023/10/03 10:37:10;;;;;;;2.83;1.83;;;20.90;99.90;;;21.38;100.00;100762.81;5253138;28;20507;-50